Terminal Aerodrome Forecast
Issued by NWS

Home | Current Version | Previous Version | Text Only | Print | Product List | Glossary On
Versions: 1 2 3 4 5 6 7 8 9 10 11 12 13
000
FTUS45 KRIW 141139
TAFCPR
TAF
KCPR 141139Z 1412/1512 29006KT P6SM SCT025 BKN050
     FM141500 33011KT P6SM BKN025
     FM142000 29010KT P6SM SCT030
     FM150000 24011KT P6SM SKC
     FM150500 23018G26KT P6SM SCT200=

USA.gov is the U.S. government's official web portal to all federal, state and local government web resources and services.